Список аэропортов
Фактическая погода:

25 июня, 11:30
Температура: +18°C (+17.2*)
Ветер: западный 7 м/с
Давление: *755 мм
разорв. обл.
870 м
Время (МСК)Темп. СВетерВлажностьДавлениеОблачностьОсадки
09:00+16З, 6 м/с64%1007 гПаоблачно
10:00+17З, 6 м/с60%1007 гПас прояснениями
11:00+17З, 6 м/с62%1007 гПаоблачно
12:00+18ЮЗ, 6 м/с64%1007 гПаоблачно
13:00+20ЮЗ, 6 м/с59%1007 гПас прояснениями
14:00+20ЮЗ, 5 м/с61%1007 гПаоблачно
15:00+20ЮЗ, 5 м/с63%1006 гПаоблачно
16:00+20ЮЗ, 5 м/с63%1005 гПаоблачносл. дождь
17:00+20ЮЗ, 5 м/с68%1005 гПаоблачно
18:00+18ЮЗ, 4 м/с88%1004 гПаоблачнодождь
19:00+18ЮЗ, 4 м/с91%1004 гПаоблачнодождь
20:00+18ЮЗ, 5 м/с90%1004 гПаоблачнодождь
21:00+16З, 5 м/с87%1004 гПаоблачносл. дождь
22:00+15З, 4 м/с88%1004 гПаоблачно
23:00+15З, 4 м/с89%1005 гПаоблачносл. дождь
26 июня
00:00+15З, 4 м/с91%1005 гПаоблачнодождь
01:00+14ЮЗ, 4 м/с92%1005 гПаоблачнодождь
02:00+14З, 4 м/с91%1005 гПаоблачно
03:00+14З, 3 м/с89%1005 гПаоблачносл. дождь
04:00+14З, 3 м/с89%1004 гПаоблачно
05:00+14З, 3 м/с89%1004 гПаоблачно
06:00+14З, 3 м/с88%1004 гПаоблачносл. дождь
07:00+13З, 3 м/с86%1004 гПаоблачно
08:00+14З, 4 м/с78%1004 гПаоблачно
09:00+14З, 4 м/с76%1004 гПаоблачносл. дождь
10:00+14ЮЗ, 3 м/с76%1004 гПаоблачно
11:00+15З, 5 м/с67%1005 гПаоблачно
12:00+14З, 5 м/с73%1005 гПаоблачносл. дождь
13:00+17З, 6 м/с59%1005 гПас прояснениями
14:00+17З, 7 м/с57%1005 гПас прояснениями
15:00+15З, 7 м/с66%1006 гПаоблачносл. дождь
16:00+17З, 8 м/с54%1006 гПас прояснениями
17:00+16З, 8 м/с56%1006 гПаоблачно
18:00+17З, 8 м/с56%1007 гПас прояснениями
19:00+17З, 8 м/с56%1007 гПас прояснениями
20:00+16З, 7 м/с58%1007 гПас прояснениями
21:00+16З, 7 м/с60%1007 гПас прояснениями
22:00+16З, 6 м/с62%1008 гПас прояснениями
23:00+15З, 5 м/с63%1008 гПас прояснениями
27 июня
00:00+15З, 5 м/с64%1008 гПас прояснениями
01:00+15З, 5 м/с67%1008 гПас прояснениями
02:00+15З, 5 м/с69%1008 гПас прояснениями
03:00+15З, 5 м/с68%1008 гПаоблачно
04:00+15З, 5 м/с65%1008 гПаоблачно
05:00+15З, 5 м/с62%1009 гПаоблачно
06:00+15З, 5 м/с61%1009 гПаоблачно
07:00+14З, 4 м/с68%1009 гПаоблачносл. дождь
08:00+13З, 3 м/с85%1009 гПаоблачнодождь
09:00+13З, 4 м/с85%1010 гПаоблачносл. дождь